sensor_id;sensor_type;location;lat;lon;timestamp;pressure;altitude;pressure_sealevel;temperature;humidity
11692;BME280;33659;42.672;23.354;2022-08-03T00:00:53;94437.41;;;22.98;51.44
11692;BME280;33659;42.672;23.354;2022-08-03T00:03:20;94434.75;;;22.98;52.54
11692;BME280;33659;42.672;23.354;2022-08-03T00:05:47;94436.66;;;22.97;52.26
11692;BME280;33659;42.672;23.354;2022-08-03T00:08:13;94436.66;;;22.97;52.76
11692;BME280;33659;42.672;23.354;2022-08-03T00:10:40;94430.53;;;23.01;51.85
11692;BME280;33659;42.672;23.354;2022-08-03T00:13:07;94436.19;;;23.03;51.88
11692;BME280;33659;42.672;23.354;2022-08-03T00:15:35;94433.09;;;23.08;52.31
11692;BME280;33659;42.672;23.354;2022-08-03T00:18:02;94429.59;;;23.11;52.73
11692;BME280;33659;42.672;23.354;2022-08-03T00:20:28;94426.53;;;23.12;53.09
11692;BME280;33659;42.672;23.354;2022-08-03T00:22:55;94426.88;;;23.14;53.38
11692;BME280;33659;42.672;23.354;2022-08-03T00:25:22;94426.06;;;23.17;53.91
11692;BME280;33659;42.672;23.354;2022-08-03T00:27:49;94424.91;;;23.18;54.12
11692;BME280;33659;42.672;23.354;2022-08-03T00:30:15;94429.38;;;23.25;53.92
11692;BME280;33659;42.672;23.354;2022-08-03T00:32:43;94426.97;;;23.31;54.12
11692;BME280;33659;42.672;23.354;2022-08-03T00:35:10;94431.44;;;23.37;53.34
11692;BME280;33659;42.672;23.354;2022-08-03T00:37:37;94429.13;;;23.39;54.03
11692;BME280;33659;42.672;23.354;2022-08-03T00:40:05;94429.41;;;23.45;53.90
11692;BME280;33659;42.672;23.354;2022-08-03T00:42:31;94425.50;;;23.49;53.71
11692;BME280;33659;42.672;23.354;2022-08-03T00:44:58;94426.25;;;23.50;53.89
11692;BME280;33659;42.672;23.354;2022-08-03T00:47:25;94426.75;;;23.45;53.85
11692;BME280;33659;42.672;23.354;2022-08-03T00:49:53;94426.84;;;23.38;53.45
11692;BME280;33659;42.672;23.354;2022-08-03T00:52:20;94432.19;;;23.38;53.26
11692;BME280;33659;42.672;23.354;2022-08-03T00:54:46;94432.19;;;23.38;53.63
11692;BME280;33659;42.672;23.354;2022-08-03T00:57:13;94423.19;;;23.32;53.66
11692;BME280;33659;42.672;23.354;2022-08-03T00:59:40;94422.34;;;23.35;53.01
11692;BME280;33659;42.672;23.354;2022-08-03T01:02:07;94426.50;;;23.36;52.35
11692;BME280;33659;42.672;23.354;2022-08-03T01:04:33;94419.63;;;23.38;52.29
11692;BME280;33659;42.672;23.354;2022-08-03T01:07:10;94424.88;;;23.42;52.24
11692;BME280;33659;42.672;23.354;2022-08-03T01:09:46;94421.47;;;23.41;52.32
11692;BME280;33659;42.672;23.354;2022-08-03T01:12:23;94418.53;;;23.36;52.61
11692;BME280;33659;42.672;23.354;2022-08-03T01:14:58;94417.03;;;23.35;53.18
11692;BME280;33659;42.672;23.354;2022-08-03T01:17:31;94417.03;;;23.35;52.95
11692;BME280;33659;42.672;23.354;2022-08-03T01:20:03;94414.00;;;23.33;53.40
11692;BME280;33659;42.672;23.354;2022-08-03T01:22:59;94423.09;;;23.35;53.49
11692;BME280;33659;42.672;23.354;2022-08-03T01:25:39;94411.81;;;23.28;53.74
11692;BME280;33659;42.672;23.354;2022-08-03T01:28:21;94404.00;;;23.17;53.30
11692;BME280;33659;42.672;23.354;2022-08-03T01:30:53;94400.00;;;23.05;53.65
11692;BME280;33659;42.672;23.354;2022-08-03T01:33:25;94403.16;;;23.00;53.87
11692;BME280;33659;42.672;23.354;2022-08-03T01:35:59;94408.47;;;23.00;53.74
11692;BME280;33659;42.672;23.354;2022-08-03T01:38:31;94412.97;;;23.03;53.83
11692;BME280;33659;42.672;23.354;2022-08-03T01:41:02;94374.22;;;22.75;53.93
11692;BME280;33659;42.672;23.354;2022-08-03T01:43:29;94418.44;;;22.96;54.01
11692;BME280;33659;42.672;23.354;2022-08-03T01:45:58;94424.56;;;22.93;53.81
11692;BME280;33659;42.672;23.354;2022-08-03T01:48:26;94415.47;;;22.90;54.09
11692;BME280;33659;42.672;23.354;2022-08-03T01:50:54;94420.75;;;22.94;54.35
11692;BME280;33659;42.672;23.354;2022-08-03T01:53:22;94413.44;;;22.98;54.03
11692;BME280;33659;42.672;23.354;2022-08-03T01:55:53;94417.69;;;22.95;53.97
11692;BME280;33659;42.672;23.354;2022-08-03T01:58:22;94423.75;;;22.96;54.05
11692;BME280;33659;42.672;23.354;2022-08-03T02:00:50;94420.69;;;22.97;54.15
11692;BME280;33659;42.672;23.354;2022-08-03T02:03:21;94420.75;;;22.94;54.04
11692;BME280;33659;42.672;23.354;2022-08-03T02:05:50;94417.03;;;22.88;54.01
11692;BME280;33659;42.672;23.354;2022-08-03T02:08:18;94420.13;;;22.83;53.32
11692;BME280;33659;42.672;23.354;2022-08-03T02:10:45;94413.75;;;22.77;53.08
11692;BME280;33659;42.672;23.354;2022-08-03T02:13:13;94417.69;;;22.68;53.38
11692;BME280;33659;42.672;23.354;2022-08-03T02:15:41;94409.13;;;22.54;54.16
11692;BME280;33659;42.672;23.354;2022-08-03T02:18:10;94418.13;;;22.63;54.66
11692;BME280;33659;42.672;23.354;2022-08-03T02:20:40;94416.56;;;22.66;54.37
11692;BME280;33659;42.672;23.354;2022-08-03T02:23:08;94416.19;;;22.67;54.31
11692;BME280;33659;42.672;23.354;2022-08-03T02:25:40;94413.16;;;22.65;54.45
11692;BME280;33659;42.672;23.354;2022-08-03T02:28:10;94407.19;;;22.58;54.40
11692;BME280;33659;42.672;23.354;2022-08-03T02:30:38;94408.94;;;22.41;54.94
11692;BME280;33659;42.672;23.354;2022-08-03T02:33:11;94413.13;;;22.42;55.03
11692;BME280;33659;42.672;23.354;2022-08-03T02:35:41;94410.00;;;22.47;54.76
11692;BME280;33659;42.672;23.354;2022-08-03T02:38:10;94401.66;;;22.45;55.05
11692;BME280;33659;42.672;23.354;2022-08-03T02:40:39;94409.25;;;22.47;55.02
11692;BME280;33659;42.672;23.354;2022-08-03T02:43:10;94410.06;;;22.43;55.36
11692;BME280;33659;42.672;23.354;2022-08-03T02:45:41;94416.13;;;22.44;55.86
11692;BME280;33659;42.672;23.354;2022-08-03T02:48:10;94418.78;;;22.44;55.63
11692;BME280;33659;42.672;23.354;2022-08-03T02:50:38;94414.25;;;22.41;56.16
11692;BME280;33659;42.672;23.354;2022-08-03T02:53:08;94421.03;;;22.46;56.00
11692;BME280;33659;42.672;23.354;2022-08-03T02:55:36;94416.03;;;22.51;55.67
11692;BME280;33659;42.672;23.354;2022-08-03T02:58:05;94410.69;;;22.51;55.96
11692;BME280;33659;42.672;23.354;2022-08-03T03:00:33;94418.69;;;22.51;55.61
11692;BME280;33659;42.672;23.354;2022-08-03T03:03:01;94407.25;;;22.54;55.77
11692;BME280;33659;42.672;23.354;2022-08-03T03:05:30;94422.75;;;22.59;55.86
11692;BME280;33659;42.672;23.354;2022-08-03T03:07:58;94425.03;;;22.61;55.85
11692;BME280;33659;42.672;23.354;2022-08-03T03:10:26;94428.88;;;22.56;55.29
11692;BME280;33659;42.672;23.354;2022-08-03T03:12:55;94438.56;;;22.43;55.39
11692;BME280;33659;42.672;23.354;2022-08-03T03:15:23;94429.22;;;22.31;55.77
11692;BME280;33659;42.672;23.354;2022-08-03T03:17:51;94431.63;;;22.22;56.28
11692;BME280;33659;42.672;23.354;2022-08-03T03:20:19;94437.75;;;22.19;56.65
11692;BME280;33659;42.672;23.354;2022-08-03T03:22:47;94443.06;;;22.19;56.46
11692;BME280;33659;42.672;23.354;2022-08-03T03:25:15;94444.16;;;22.22;56.32
11692;BME280;33659;42.672;23.354;2022-08-03T03:27:44;94444.09;;;22.29;55.84
11692;BME280;33659;42.672;23.354;2022-08-03T03:30:12;94454.28;;;22.34;55.41
11692;BME280;33659;42.672;23.354;2022-08-03T03:32:39;94451.97;;;22.36;55.21
11692;BME280;33659;42.672;23.354;2022-08-03T03:35:08;94447.75;;;22.38;55.06
11692;BME280;33659;42.672;23.354;2022-08-03T03:37:35;94447.31;;;22.43;55.10
11692;BME280;33659;42.672;23.354;2022-08-03T03:40:02;94446.88;;;22.49;54.75
11692;BME280;33659;42.672;23.354;2022-08-03T03:42:29;94450.97;;;22.53;54.53
11692;BME280;33659;42.672;23.354;2022-08-03T03:44:58;94457.09;;;22.50;54.58
11692;BME280;33659;42.672;23.354;2022-08-03T03:47:28;94450.41;;;22.38;55.54
11692;BME280;33659;42.672;23.354;2022-08-03T03:49:56;94456.94;;;22.34;55.67
11692;BME280;33659;42.672;23.354;2022-08-03T03:52:23;94456.72;;;22.21;56.40
11692;BME280;33659;42.672;23.354;2022-08-03T03:54:50;94462.13;;;22.14;56.45
11692;BME280;33659;42.672;23.354;2022-08-03T03:57:16;94460.94;;;22.19;56.49
11692;BME280;33659;42.672;23.354;2022-08-03T03:59:43;94462.72;;;22.29;56.34
11692;BME280;33659;42.672;23.354;2022-08-03T04:02:11;94464.06;;;22.40;56.17
11692;BME280;33659;42.672;23.354;2022-08-03T04:04:38;94463.16;;;22.54;55.70
11692;BME280;33659;42.672;23.354;2022-08-03T04:07:24;94460.63;;;22.70;55.53
11692;BME280;33659;42.672;23.354;2022-08-03T04:10:12;94458.56;;;22.82;55.25
11692;BME280;33659;42.672;23.354;2022-08-03T04:12:59;94458.06;;;22.90;55.00
11692;BME280;33659;42.672;23.354;2022-08-03T04:15:28;94456.00;;;23.02;54.78
11692;BME280;33659;42.672;23.354;2022-08-03T04:17:58;94450.59;;;23.05;54.79
11692;BME280;33659;42.672;23.354;2022-08-03T04:20:29;94458.50;;;23.12;54.63
11692;BME280;33659;42.672;23.354;2022-08-03T04:22:57;94456.88;;;23.18;54.56
11692;BME280;33659;42.672;23.354;2022-08-03T04:25:27;94457.91;;;23.24;54.20
11692;BME280;33659;42.672;23.354;2022-08-03T04:27:56;94444.25;;;23.22;54.24
11692;BME280;33659;42.672;23.354;2022-08-03T04:30:25;94464.13;;;23.41;54.05
11692;BME280;33659;42.672;23.354;2022-08-03T04:32:54;94457.56;;;23.46;53.37
11692;BME280;33659;42.672;23.354;2022-08-03T04:35:23;94464.69;;;23.52;53.57
11692;BME280;33659;42.672;23.354;2022-08-03T04:37:52;94463.81;;;23.59;53.31
11692;BME280;33659;42.672;23.354;2022-08-03T04:40:24;94467.88;;;23.67;53.30
11692;BME280;33659;42.672;23.354;2022-08-03T04:42:53;94472.75;;;23.72;52.69
11692;BME280;33659;42.672;23.354;2022-08-03T04:45:21;94473.56;;;23.69;52.85
11692;BME280;33659;42.672;23.354;2022-08-03T04:47:50;94462.63;;;23.64;52.77
11692;BME280;33659;42.672;23.354;2022-08-03T04:50:17;94479.25;;;23.71;53.14
11692;BME280;33659;42.672;23.354;2022-08-03T04:52:46;94480.66;;;23.76;52.58
11692;BME280;33659;42.672;23.354;2022-08-03T04:55:24;94479.13;;;23.78;52.46
11692;BME280;33659;42.672;23.354;2022-08-03T04:57:51;94474.81;;;23.85;52.26
11692;BME280;33659;42.672;23.354;2022-08-03T05:00:18;94467.97;;;23.84;51.76
11692;BME280;33659;42.672;23.354;2022-08-03T05:02:45;94480.56;;;23.83;52.20
11692;BME280;33659;42.672;23.354;2022-08-03T05:05:11;94485.94;;;23.80;52.60
11692;BME280;33659;42.672;23.354;2022-08-03T05:07:40;94484.66;;;23.88;52.07
11692;BME280;33659;42.672;23.354;2022-08-03T05:10:09;94486.09;;;23.92;51.88
11692;BME280;33659;42.672;23.354;2022-08-03T05:12:36;94494.38;;;23.98;51.45
11692;BME280;33659;42.672;23.354;2022-08-03T05:15:04;94491.25;;;24.03;51.54
11692;BME280;33659;42.672;23.354;2022-08-03T05:17:31;94490.41;;;24.06;51.31
11692;BME280;33659;42.672;23.354;2022-08-03T05:19:58;94496.91;;;24.05;51.56
11692;BME280;33659;42.672;23.354;2022-08-03T05:22:25;94493.81;;;24.07;51.39
11692;BME280;33659;42.672;23.354;2022-08-03T05:24:52;94500.81;;;24.20;51.01
11692;BME280;33659;42.672;23.354;2022-08-03T05:27:20;94494.09;;;24.12;50.96
11692;BME280;33659;42.672;23.354;2022-08-03T05:29:49;94502.66;;;24.23;50.34
11692;BME280;33659;42.672;23.354;2022-08-03T05:32:16;94505.06;;;23.98;51.13
11692;BME280;33659;42.672;23.354;2022-08-03T05:34:43;94505.69;;;23.82;51.53
11692;BME280;33659;42.672;23.354;2022-08-03T05:37:10;94518.28;;;23.82;51.43
11692;BME280;33659;42.672;23.354;2022-08-03T05:39:37;94528.28;;;23.77;51.76
11692;BME280;33659;42.672;23.354;2022-08-03T05:42:03;94518.50;;;23.71;51.76
11692;BME280;33659;42.672;23.354;2022-08-03T05:44:32;94517.25;;;23.75;51.88
11692;BME280;33659;42.672;23.354;2022-08-03T05:46:58;94517.41;;;23.88;51.80
11692;BME280;33659;42.672;23.354;2022-08-03T05:49:25;94522.56;;;23.99;51.64
11692;BME280;33659;42.672;23.354;2022-08-03T05:51:52;94518.72;;;24.00;51.44
11692;BME280;33659;42.672;23.354;2022-08-03T05:54:18;94521.53;;;23.93;51.49
11692;BME280;33659;42.672;23.354;2022-08-03T05:56:45;94517.03;;;23.90;51.97
11692;BME280;33659;42.672;23.354;2022-08-03T05:59:12;94520.38;;;23.94;51.99
11692;BME280;33659;42.672;23.354;2022-08-03T06:01:40;94514.75;;;24.08;51.98
11692;BME280;33659;42.672;23.354;2022-08-03T06:04:07;94519.84;;;24.22;51.31
11692;BME280;33659;42.672;23.354;2022-08-03T06:06:34;94520.44;;;24.30;51.59
11692;BME280;33659;42.672;23.354;2022-08-03T06:09:01;94521.50;;;24.36;51.51
11692;BME280;33659;42.672;23.354;2022-08-03T06:11:27;94517.47;;;24.48;50.81
11692;BME280;33659;42.672;23.354;2022-08-03T06:13:54;94519.91;;;24.58;51.33
11692;BME280;33659;42.672;23.354;2022-08-03T06:16:21;94525.97;;;24.59;50.80
11692;BME280;33659;42.672;23.354;2022-08-03T06:18:49;94525.84;;;24.66;50.72
11692;BME280;33659;42.672;23.354;2022-08-03T06:21:16;94529.19;;;24.70;50.41
11692;BME280;33659;42.672;23.354;2022-08-03T06:23:43;94518.34;;;24.61;50.89
11692;BME280;33659;42.672;23.354;2022-08-03T06:26:10;94524.09;;;24.40;51.19
11692;BME280;33659;42.672;23.354;2022-08-03T06:28:37;94523.28;;;24.43;51.03
11692;BME280;33659;42.672;23.354;2022-08-03T06:31:04;94513.34;;;24.43;50.76
11692;BME280;33659;42.672;23.354;2022-08-03T06:33:30;94519.13;;;24.42;50.88
11692;BME280;33659;42.672;23.354;2022-08-03T06:35:58;94523.28;;;24.43;51.27
11692;BME280;33659;42.672;23.354;2022-08-03T06:38:25;94519.38;;;24.47;51.25
11692;BME280;33659;42.672;23.354;2022-08-03T06:40:53;94514.91;;;24.41;50.97
11692;BME280;33659;42.672;23.354;2022-08-03T06:43:20;94520.25;;;24.41;50.74
11692;BME280;33659;42.672;23.354;2022-08-03T06:45:46;94517.47;;;24.48;51.21
11692;BME280;33659;42.672;23.354;2022-08-03T06:48:13;94503.56;;;24.37;51.58
11692;BME280;33659;42.672;23.354;2022-08-03T06:50:41;94523.31;;;24.59;51.18
11692;BME280;33659;42.672;23.354;2022-08-03T06:53:10;94513.91;;;24.71;50.78
11692;BME280;33659;42.672;23.354;2022-08-03T06:55:36;94517.19;;;24.78;50.90
11692;BME280;33659;42.672;23.354;2022-08-03T06:58:03;94511.63;;;24.89;50.07
11692;BME280;33659;42.672;23.354;2022-08-03T07:00:30;94507.97;;;24.99;50.32
11692;BME280;33659;42.672;23.354;2022-08-03T07:02:57;94510.41;;;25.10;49.83
11692;BME280;33659;42.672;23.354;2022-08-03T07:05:24;94512.91;;;25.17;50.07
11692;BME280;33659;42.672;23.354;2022-08-03T07:07:53;94514.66;;;25.24;48.86
11692;BME280;33659;42.672;23.354;2022-08-03T07:10:22;94511.03;;;24.98;49.88
11692;BME280;33659;42.672;23.354;2022-08-03T07:12:49;94516.19;;;25.08;49.71
11692;BME280;33659;42.672;23.354;2022-08-03T07:15:16;94514.50;;;25.15;49.76
11692;BME280;33659;42.672;23.354;2022-08-03T07:17:43;94515.09;;;25.06;49.34
11692;BME280;33659;42.672;23.354;2022-08-03T07:20:10;94511.03;;;24.98;49.67
11692;BME280;33659;42.672;23.354;2022-08-03T07:22:37;94513.22;;;25.03;49.39
11692;BME280;33659;42.672;23.354;2022-08-03T07:25:05;94509.41;;;25.20;48.80
11692;BME280;33659;42.672;23.354;2022-08-03T07:27:33;94519.44;;;25.32;48.24
11692;BME280;33659;42.672;23.354;2022-08-03T07:30:00;94520.78;;;25.41;48.20
11692;BME280;33659;42.672;23.354;2022-08-03T07:32:27;94516.25;;;25.54;47.51
11692;BME280;33659;42.672;23.354;2022-08-03T07:34:55;94517.25;;;25.60;47.70
11692;BME280;33659;42.672;23.354;2022-08-03T07:37:22;94526.28;;;25.66;47.84
11692;BME280;33659;42.672;23.354;2022-08-03T07:39:49;94521.59;;;25.70;47.71
11692;BME280;33659;42.672;23.354;2022-08-03T07:42:15;94525.94;;;25.80;47.24
11692;BME280;33659;42.672;23.354;2022-08-03T07:44:44;94523.25;;;25.80;47.19
11692;BME280;33659;42.672;23.354;2022-08-03T07:47:10;94518.22;;;25.82;47.44
11692;BME280;33659;42.672;23.354;2022-08-03T07:49:40;94527.69;;;25.87;47.81
11692;BME280;33659;42.672;23.354;2022-08-03T07:52:07;94521.41;;;25.93;46.85
11692;BME280;33659;42.672;23.354;2022-08-03T07:54:51;94528.16;;;25.98;46.10
11692;BME280;33659;42.672;23.354;2022-08-03T07:57:17;94525.16;;;25.96;46.04
11692;BME280;33659;42.672;23.354;2022-08-03T07:59:46;94524.97;;;26.03;46.07
11692;BME280;33659;42.672;23.354;2022-08-03T08:02:12;94521.56;;;26.03;45.91
11692;BME280;33659;42.672;23.354;2022-08-03T08:04:39;94525.53;;;26.11;44.76
11692;BME280;33659;42.672;23.354;2022-08-03T08:07:06;94506.19;;;25.90;45.21
11692;BME280;33659;42.672;23.354;2022-08-03T08:09:33;94527.47;;;26.10;45.81
11692;BME280;33659;42.672;23.354;2022-08-03T08:12:00;94532.84;;;26.23;44.23
11692;BME280;33659;42.672;23.354;2022-08-03T08:14:27;94523.66;;;26.24;43.86
11692;BME280;33659;42.672;23.354;2022-08-03T08:16:55;94531.44;;;26.18;44.67
11692;BME280;33659;42.672;23.354;2022-08-03T08:19:22;94527.50;;;26.23;44.59
11692;BME280;33659;42.672;23.354;2022-08-03T08:21:48;94528.91;;;26.28;44.74
11692;BME280;33659;42.672;23.354;2022-08-03T08:24:15;94526.88;;;26.32;44.58
11692;BME280;33659;42.672;23.354;2022-08-03T08:26:42;94534.06;;;26.35;44.32
11692;BME280;33659;42.672;23.354;2022-08-03T08:29:08;94524.94;;;26.32;43.25
11692;BME280;33659;42.672;23.354;2022-08-03T08:31:35;94525.59;;;26.36;43.97
11692;BME280;33659;42.672;23.354;2022-08-03T08:34:03;94525.13;;;26.41;43.82
11692;BME280;33659;42.672;23.354;2022-08-03T08:36:31;94523.94;;;26.42;43.75
11692;BME280;33659;42.672;23.354;2022-08-03T08:38:58;94532.28;;;26.44;43.31
11692;BME280;33659;42.672;23.354;2022-08-03T08:41:25;94519.22;;;26.46;43.19
11692;BME280;33659;42.672;23.354;2022-08-03T08:43:52;94518.94;;;26.57;42.66
11692;BME280;33659;42.672;23.354;2022-08-03T08:46:20;94520.66;;;26.64;42.67
11692;BME280;33659;42.672;23.354;2022-08-03T08:48:47;94525.16;;;26.67;42.54
11692;BME280;33659;42.672;23.354;2022-08-03T08:51:18;94525.91;;;26.67;41.99
11692;BME280;33659;42.672;23.354;2022-08-03T08:53:49;94515.09;;;26.71;41.71
11692;BME280;33659;42.672;23.354;2022-08-03T08:56:17;94504.06;;;26.69;42.21
11692;BME280;33659;42.672;23.354;2022-08-03T08:58:48;94514.56;;;26.76;42.83
11692;BME280;33659;42.672;23.354;2022-08-03T09:01:17;94512.19;;;26.78;42.11
11692;BME280;33659;42.672;23.354;2022-08-03T09:03:44;94511.56;;;26.87;42.66
11692;BME280;33659;42.672;23.354;2022-08-03T09:06:11;94508.75;;;26.90;42.14
11692;BME280;33659;42.672;23.354;2022-08-03T09:08:39;94495.28;;;26.94;41.39
11692;BME280;33659;42.672;23.354;2022-08-03T09:11:06;94509.88;;;27.06;41.83
11692;BME280;33659;42.672;23.354;2022-08-03T09:13:33;94520.03;;;27.11;41.94
11692;BME280;33659;42.672;23.354;2022-08-03T09:16:09;94512.97;;;27.17;40.25
11692;BME280;33659;42.672;23.354;2022-08-03T09:18:36;94503.94;;;27.23;40.44
11692;BME280;33659;42.672;23.354;2022-08-03T09:21:23;94511.59;;;27.25;40.52
11692;BME280;33659;42.672;23.354;2022-08-03T09:23:52;94508.78;;;27.29;40.65
11692;BME280;33659;42.672;23.354;2022-08-03T09:26:21;94507.19;;;27.31;40.80
11692;BME280;33659;42.672;23.354;2022-08-03T09:28:58;94504.50;;;27.31;40.95
11692;BME280;33659;42.672;23.354;2022-08-03T09:31:32;94501.28;;;27.11;39.76
11692;BME280;33659;42.672;23.354;2022-08-03T09:34:01;94497.84;;;27.10;39.77
11692;BME280;33659;42.672;23.354;2022-08-03T09:36:36;94501.09;;;27.18;39.63
11692;BME280;33659;42.672;23.354;2022-08-03T09:39:06;94501.19;;;27.14;39.68
11692;BME280;33659;42.672;23.354;2022-08-03T09:41:35;94504.06;;;27.20;39.88
11692;BME280;33659;42.672;23.354;2022-08-03T09:44:02;94503.63;;;27.21;40.10
11692;BME280;33659;42.672;23.354;2022-08-03T09:46:29;94505.78;;;27.26;40.16
11692;BME280;33659;42.672;23.354;2022-08-03T09:49:10;94504.69;;;27.37;40.00
11692;BME280;33659;42.672;23.354;2022-08-03T09:51:38;94503.59;;;27.47;40.25
11692;BME280;33659;42.672;23.354;2022-08-03T09:54:06;94500.13;;;27.59;39.92
11692;BME280;33659;42.672;23.354;2022-08-03T09:56:38;94500.97;;;27.69;39.07
11692;BME280;33659;42.672;23.354;2022-08-03T09:59:05;94503.44;;;27.76;38.93
11692;BME280;33659;42.672;23.354;2022-08-03T10:01:32;94496.75;;;27.80;38.85
11692;BME280;33659;42.672;23.354;2022-08-03T10:03:59;94497.84;;;27.83;38.64
11692;BME280;33659;42.672;23.354;2022-08-03T10:06:26;94499.78;;;27.83;38.03
11692;BME280;33659;42.672;23.354;2022-08-03T10:09:06;94488.91;;;27.86;38.14
11692;BME280;33659;42.672;23.354;2022-08-03T10:11:33;94489.84;;;27.92;38.66
11692;BME280;33659;42.672;23.354;2022-08-03T10:14:02;94491.84;;;28.01;38.18
11692;BME280;33659;42.672;23.354;2022-08-03T10:16:32;94483.47;;;27.99;38.27
11692;BME280;33659;42.672;23.354;2022-08-03T10:19:00;94490.16;;;27.94;37.63
11692;BME280;33659;42.672;23.354;2022-08-03T10:21:29;94485.13;;;27.96;38.03
11692;BME280;33659;42.672;23.354;2022-08-03T10:24:01;94481.84;;;28.01;38.47
11692;BME280;33659;42.672;23.354;2022-08-03T10:26:31;94483.66;;;28.04;38.90
11692;BME280;33659;42.672;23.354;2022-08-03T10:29:01;94446.25;;;27.88;38.12
11692;BME280;33659;42.672;23.354;2022-08-03T10:31:33;94464.31;;;28.10;38.51
11692;BME280;33659;42.672;23.354;2022-08-03T10:34:01;94476.28;;;28.18;38.46
11692;BME280;33659;42.672;23.354;2022-08-03T10:36:30;94473.34;;;28.25;39.46
11692;BME280;33659;42.672;23.354;2022-08-03T10:38:59;94477.22;;;28.24;38.25
11692;BME280;33659;42.672;23.354;2022-08-03T10:41:33;94473.34;;;28.25;37.73
11692;BME280;33659;42.672;23.354;2022-08-03T10:44:04;94470.22;;;28.26;37.63
11692;BME280;33659;42.672;23.354;2022-08-03T10:46:32;94475.06;;;28.31;37.74
11692;BME280;33659;42.672;23.354;2022-08-03T10:49:00;94457.94;;;28.38;37.39
11692;BME280;33659;42.672;23.354;2022-08-03T10:51:28;94464.06;;;28.39;38.00
11692;BME280;33659;42.672;23.354;2022-08-03T10:53:56;94463.31;;;28.38;37.60
11692;BME280;33659;42.672;23.354;2022-08-03T10:56:40;94473.19;;;28.41;37.89
11692;BME280;33659;42.672;23.354;2022-08-03T10:59:56;94465.44;;;28.43;37.60
11692;BME280;33659;42.672;23.354;2022-08-03T11:05:25;94456.16;;;28.66;37.61
11692;BME280;33659;42.672;23.354;2022-08-03T11:08:16;94454.50;;;28.69;37.70
11692;BME280;33659;42.672;23.354;2022-08-03T11:10:43;94456.91;;;28.76;37.29
11692;BME280;33659;42.672;23.354;2022-08-03T11:13:14;94454.69;;;28.83;37.02
11692;BME280;33659;42.672;23.354;2022-08-03T11:15:43;94448.03;;;28.97;37.14
11692;BME280;33659;42.672;23.354;2022-08-03T11:18:11;94444.03;;;29.02;37.06
11692;BME280;33659;42.672;23.354;2022-08-03T11:20:49;94445.22;;;29.10;36.96
11692;BME280;33659;42.672;23.354;2022-08-03T11:23:19;94438.06;;;29.16;36.82
11692;BME280;33659;42.672;23.354;2022-08-03T11:26:08;94431.53;;;29.26;37.38
11692;BME280;33659;42.672;23.354;2022-08-03T11:28:36;94434.06;;;29.30;36.93
11692;BME280;33659;42.672;23.354;2022-08-03T11:34:14;94427.50;;;29.49;36.02
11692;BME280;33659;42.672;23.354;2022-08-03T11:37:19;94417.06;;;29.60;36.63
11692;BME280;33659;42.672;23.354;2022-08-03T11:39:53;94428.88;;;29.72;35.79
11692;BME280;33659;42.672;23.354;2022-08-03T11:42:40;94420.34;;;29.83;35.89
11692;BME280;33659;42.672;23.354;2022-08-03T11:45:11;94419.13;;;29.93;36.08
11692;BME280;33659;42.672;23.354;2022-08-03T11:47:39;94423.88;;;30.07;35.48
11692;BME280;33659;42.672;23.354;2022-08-03T11:50:07;94418.53;;;30.16;35.74
11692;BME280;33659;42.672;23.354;2022-08-03T11:52:39;94417.59;;;30.19;35.26
11692;BME280;33659;42.672;23.354;2022-08-03T11:55:14;94418.53;;;30.16;34.97
11692;BME280;33659;42.672;23.354;2022-08-03T11:57:41;94420.44;;;30.25;35.14
11692;BME280;33659;42.672;23.354;2022-08-03T12:00:28;94411.56;;;30.43;34.46
11692;BME280;33659;42.672;23.354;2022-08-03T12:03:02;94411.97;;;30.51;34.43
11692;BME280;33659;42.672;23.354;2022-08-03T12:05:43;94413.59;;;30.57;34.29
11692;BME280;33659;42.672;23.354;2022-08-03T12:08:11;94408.78;;;30.61;33.88
11692;BME280;33659;42.672;23.354;2022-08-03T12:10:38;94414.63;;;30.69;33.81
11692;BME280;33659;42.672;23.354;2022-08-03T12:13:06;94411.47;;;30.70;33.50
11692;BME280;33659;42.672;23.354;2022-08-03T12:15:35;94400.25;;;30.63;33.41
11692;BME280;33659;42.672;23.354;2022-08-03T12:18:12;94397.53;;;30.72;33.40
11692;BME280;33659;42.672;23.354;2022-08-03T12:20:39;94402.41;;;30.83;33.29
11692;BME280;33659;42.672;23.354;2022-08-03T12:23:07;94410.56;;;30.97;33.12
11692;BME280;33659;42.672;23.354;2022-08-03T12:25:36;94393.25;;;31.13;32.45
11692;BME280;33659;42.672;23.354;2022-08-03T12:28:12;94402.50;;;31.21;32.48
11692;BME280;33659;42.672;23.354;2022-08-03T12:30:43;94391.59;;;31.16;31.96
11692;BME280;33659;42.672;23.354;2022-08-03T12:33:12;94399.94;;;31.27;31.52
11692;BME280;33659;42.672;23.354;2022-08-03T12:35:39;94396.13;;;31.34;31.71
11692;BME280;33659;42.672;23.354;2022-08-03T12:38:05;94397.84;;;31.46;31.79
11692;BME280;33659;42.672;23.354;2022-08-03T12:40:32;94394.91;;;31.59;31.42
11692;BME280;33659;42.672;23.354;2022-08-03T12:42:59;94395.94;;;31.76;31.08
11692;BME280;33659;42.672;23.354;2022-08-03T12:45:28;94395.84;;;31.70;31.99
11692;BME280;33659;42.672;23.354;2022-08-03T12:47:59;94389.31;;;31.62;32.39
11692;BME280;33659;42.672;23.354;2022-08-03T12:50:27;94388.00;;;31.58;30.82
11692;BME280;33659;42.672;23.354;2022-08-03T12:52:55;94386.06;;;31.73;31.22
11692;BME280;33659;42.672;23.354;2022-08-03T12:55:23;94386.19;;;31.78;31.28
11692;BME280;33659;42.672;23.354;2022-08-03T12:57:57;94394.69;;;31.62;31.03
11692;BME280;33659;42.672;23.354;2022-08-03T13:00:25;94383.13;;;31.32;31.26
11692;BME280;33659;42.672;23.354;2022-08-03T13:02:59;94385.03;;;31.08;32.37
11692;BME280;33659;42.672;23.354;2022-08-03T13:05:28;94379.81;;;31.04;32.25
11692;BME280;33659;42.672;23.354;2022-08-03T13:07:55;94383.16;;;30.99;33.26